sensor_id;sensor_type;location;lat;lon;timestamp;noise_LAeq;noise_LA_min;noise_LA_max;noise_LA01;noise_LA95
68599;Laerm;18038;50.166;18.908;2023-12-28T00:01:56;32.43;31.72;35.67;;
68599;Laerm;18038;50.166;18.908;2023-12-28T00:05:05;33.97;31.56;46.55;;
68599;Laerm;18038;50.166;18.908;2023-12-28T00:08:12;34.70;31.52;45.97;;
68599;Laerm;18038;50.166;18.908;2023-12-28T00:11:21;33.37;31.74;47.20;;
68599;Laerm;18038;50.166;18.908;2023-12-28T00:14:31;34.70;31.86;48.75;;
68599;Laerm;18038;50.166;18.908;2023-12-28T00:17:39;34.37;31.83;46.84;;
68599;Laerm;18038;50.166;18.908;2023-12-28T00:20:46;32.70;31.90;35.77;;
68599;Laerm;18038;50.166;18.908;2023-12-28T00:23:54;33.94;31.87;45.36;;
68599;Laerm;18038;50.166;18.908;2023-12-28T00:27:02;32.90;31.89;36.06;;
68599;Laerm;18038;50.166;18.908;2023-12-28T00:30:13;33.69;31.85;43.37;;
68599;Laerm;18038;50.166;18.908;2023-12-28T00:33:23;33.12;31.83;36.45;;
68599;Laerm;18038;50.166;18.908;2023-12-28T00:36:31;33.26;32.04;39.88;;
68599;Laerm;18038;50.166;18.908;2023-12-28T00:39:42;34.36;33.30;40.69;;
68599;Laerm;18038;50.166;18.908;2023-12-28T00:42:57;34.89;33.29;39.93;;
68599;Laerm;18038;50.166;18.908;2023-12-28T00:46:19;34.89;33.29;38.88;;
68599;Laerm;18038;50.166;18.908;2023-12-28T00:49:27;35.70;33.88;46.89;;
68599;Laerm;18038;50.166;18.908;2023-12-28T00:52:34;34.99;34.10;36.87;;
68599;Laerm;18038;50.166;18.908;2023-12-28T00:55:42;34.83;33.92;36.82;;
68599;Laerm;18038;50.166;18.908;2023-12-28T00:58:50;36.18;33.98;45.04;;
68599;Laerm;18038;50.166;18.908;2023-12-28T01:02:00;36.07;34.63;39.92;;
68599;Laerm;18038;50.166;18.908;2023-12-28T01:05:09;38.01;34.57;49.82;;
68599;Laerm;18038;50.166;18.908;2023-12-28T01:08:17;35.53;33.87;37.16;;
68599;Laerm;18038;50.166;18.908;2023-12-28T01:11:25;36.43;34.06;50.42;;
68599;Laerm;18038;50.166;18.908;2023-12-28T01:14:34;35.41;34.14;40.51;;
68599;Laerm;18038;50.166;18.908;2023-12-28T01:17:44;35.29;33.66;47.09;;
68599;Laerm;18038;50.166;18.908;2023-12-28T01:20:52;35.09;33.95;37.75;;
68599;Laerm;18038;50.166;18.908;2023-12-28T01:23:59;37.46;33.85;51.50;;
68599;Laerm;18038;50.166;18.908;2023-12-28T01:27:07;34.91;33.32;40.17;;
68599;Laerm;18038;50.166;18.908;2023-12-28T01:30:15;34.43;32.98;44.79;;
68599;Laerm;18038;50.166;18.908;2023-12-28T01:33:26;34.03;32.57;43.66;;
68599;Laerm;18038;50.166;18.908;2023-12-28T01:36:34;33.38;32.64;35.37;;
68599;Laerm;18038;50.166;18.908;2023-12-28T01:39:42;33.25;32.60;35.37;;
68599;Laerm;18038;50.166;18.908;2023-12-28T01:42:49;34.98;32.28;50.01;;
68599;Laerm;18038;50.166;18.908;2023-12-28T01:45:57;33.95;32.44;44.13;;
68599;Laerm;18038;50.166;18.908;2023-12-28T01:49:09;33.73;32.32;43.23;;
68599;Laerm;18038;50.166;18.908;2023-12-28T01:52:19;32.82;32.12;34.54;;
68599;Laerm;18038;50.166;18.908;2023-12-28T01:55:29;33.04;32.16;37.02;;
68599;Laerm;18038;50.166;18.908;2023-12-28T01:58:44;35.07;32.24;49.31;;
68599;Laerm;18038;50.166;18.908;2023-12-28T02:01:53;34.62;32.20;45.40;;
68599;Laerm;18038;50.166;18.908;2023-12-28T02:05:05;32.66;32.10;35.12;;
68599;Laerm;18038;50.166;18.908;2023-12-28T02:08:15;33.30;31.80;42.28;;
68599;Laerm;18038;50.166;18.908;2023-12-28T02:11:23;32.66;31.98;34.84;;
68599;Laerm;18038;50.166;18.908;2023-12-28T02:14:30;32.77;31.89;34.72;;
68599;Laerm;18038;50.166;18.908;2023-12-28T02:17:47;32.71;32.03;33.86;;
68599;Laerm;18038;50.166;18.908;2023-12-28T02:21:06;32.97;31.71;38.03;;
68599;Laerm;18038;50.166;18.908;2023-12-28T02:24:15;32.46;31.90;33.65;;
68599;Laerm;18038;50.166;18.908;2023-12-28T02:27:28;35.53;31.83;47.58;;
68599;Laerm;18038;50.166;18.908;2023-12-28T02:30:36;33.91;32.00;45.98;;
68599;Laerm;18038;50.166;18.908;2023-12-28T02:33:53;34.19;31.98;45.66;;
68599;Laerm;18038;50.166;18.908;2023-12-28T02:37:04;33.98;31.96;47.82;;
68599;Laerm;18038;50.166;18.908;2023-12-28T02:40:17;32.75;31.96;36.26;;
68599;Laerm;18038;50.166;18.908;2023-12-28T02:43:29;32.69;31.93;34.47;;
68599;Laerm;18038;50.166;18.908;2023-12-28T02:46:38;34.28;31.86;48.13;;
68599;Laerm;18038;50.166;18.908;2023-12-28T02:49:45;32.88;32.26;34.66;;
68599;Laerm;18038;50.166;18.908;2023-12-28T02:52:53;35.05;32.31;49.06;;
68599;Laerm;18038;50.166;18.908;2023-12-28T02:56:02;33.29;32.13;42.22;;
68599;Laerm;18038;50.166;18.908;2023-12-28T02:59:14;32.76;31.97;36.33;;
68599;Laerm;18038;50.166;18.908;2023-12-28T03:02:21;32.49;31.84;35.05;;
68599;Laerm;18038;50.166;18.908;2023-12-28T03:05:35;33.15;31.72;44.46;;
68599;Laerm;18038;50.166;18.908;2023-12-28T03:08:49;36.45;31.99;48.19;;
68599;Laerm;18038;50.166;18.908;2023-12-28T03:11:59;34.98;31.83;50.65;;
68599;Laerm;18038;50.166;18.908;2023-12-28T03:15:15;35.15;31.80;47.34;;
68599;Laerm;18038;50.166;18.908;2023-12-28T03:18:24;35.98;31.77;48.71;;
68599;Laerm;18038;50.166;18.908;2023-12-28T03:21:31;34.66;31.63;46.54;;
68599;Laerm;18038;50.166;18.908;2023-12-28T03:24:47;33.80;31.71;46.60;;
68599;Laerm;18038;50.166;18.908;2023-12-28T03:27:54;35.41;31.84;47.54;;
68599;Laerm;18038;50.166;18.908;2023-12-28T03:31:05;32.68;31.72;37.43;;
68599;Laerm;18038;50.166;18.908;2023-12-28T03:34:13;34.91;31.85;46.79;;
68599;Laerm;18038;50.166;18.908;2023-12-28T03:37:22;35.50;31.90;46.81;;
68599;Laerm;18038;50.166;18.908;2023-12-28T03:40:30;34.80;31.71;50.97;;
68599;Laerm;18038;50.166;18.908;2023-12-28T03:43:40;34.45;31.98;45.91;;
68599;Laerm;18038;50.166;18.908;2023-12-28T03:46:50;37.01;31.95;49.82;;
68599;Laerm;18038;50.166;18.908;2023-12-28T03:49:58;35.47;31.98;46.96;;
68599;Laerm;18038;50.166;18.908;2023-12-28T03:53:06;38.35;32.01;50.67;;
68599;Laerm;18038;50.166;18.908;2023-12-28T03:56:23;35.57;31.83;48.71;;
68599;Laerm;18038;50.166;18.908;2023-12-28T03:59:30;34.96;31.94;46.29;;
68599;Laerm;18038;50.166;18.908;2023-12-28T04:02:41;33.14;31.79;42.13;;
68599;Laerm;18038;50.166;18.908;2023-12-28T04:05:48;35.01;31.86;45.37;;
68599;Laerm;18038;50.166;18.908;2023-12-28T04:08:57;36.13;31.90;47.17;;
68599;Laerm;18038;50.166;18.908;2023-12-28T04:12:04;37.11;31.96;47.43;;
68599;Laerm;18038;50.166;18.908;2023-12-28T04:15:13;39.92;32.52;49.97;;
68599;Laerm;18038;50.166;18.908;2023-12-28T04:18:23;36.32;32.01;48.15;;
68599;Laerm;18038;50.166;18.908;2023-12-28T04:21:31;38.02;32.21;54.29;;
68599;Laerm;18038;50.166;18.908;2023-12-28T04:24:40;35.94;32.16;46.09;;
68599;Laerm;18038;50.166;18.908;2023-12-28T04:27:48;36.89;32.35;47.56;;
68599;Laerm;18038;50.166;18.908;2023-12-28T04:30:56;39.31;32.52;49.28;;
68599;Laerm;18038;50.166;18.908;2023-12-28T04:34:07;41.07;32.63;51.97;;
68599;Laerm;18038;50.166;18.908;2023-12-28T04:37:20;38.55;32.77;48.08;;
68599;Laerm;18038;50.166;18.908;2023-12-28T04:40:30;37.57;32.66;47.50;;
68599;Laerm;18038;50.166;18.908;2023-12-28T04:43:38;39.35;32.90;52.75;;
68599;Laerm;18038;50.166;18.908;2023-12-28T04:46:46;38.17;32.66;46.64;;
68599;Laerm;18038;50.166;18.908;2023-12-28T04:50:05;39.85;33.07;54.78;;
68599;Laerm;18038;50.166;18.908;2023-12-28T04:53:14;41.17;33.27;55.43;;
68599;Laerm;18038;50.166;18.908;2023-12-28T04:56:21;46.09;33.09;60.48;;
68599;Laerm;18038;50.166;18.908;2023-12-28T04:59:38;45.41;32.99;60.21;;
68599;Laerm;18038;50.166;18.908;2023-12-28T05:02:58;42.99;32.85;58.77;;
68599;Laerm;18038;50.166;18.908;2023-12-28T05:06:09;49.56;34.06;64.32;;
68599;Laerm;18038;50.166;18.908;2023-12-28T05:09:16;48.56;33.37;65.97;;
68599;Laerm;18038;50.166;18.908;2023-12-28T05:12:25;50.01;34.51;67.29;;
68599;Laerm;18038;50.166;18.908;2023-12-28T05:15:46;49.81;34.46;64.84;;
68599;Laerm;18038;50.166;18.908;2023-12-28T05:18:56;48.08;33.11;63.99;;
68599;Laerm;18038;50.166;18.908;2023-12-28T05:22:14;44.82;33.45;63.36;;
68599;Laerm;18038;50.166;18.908;2023-12-28T05:25:22;45.14;33.72;60.43;;
68599;Laerm;18038;50.166;18.908;2023-12-28T05:28:29;43.81;33.53;58.46;;
68599;Laerm;18038;50.166;18.908;2023-12-28T05:31:38;45.21;34.46;56.38;;
68599;Laerm;18038;50.166;18.908;2023-12-28T05:34:47;43.54;33.38;59.84;;
68599;Laerm;18038;50.166;18.908;2023-12-28T05:37:58;46.70;33.50;68.40;;
68599;Laerm;18038;50.166;18.908;2023-12-28T05:41:09;43.12;33.71;59.20;;
68599;Laerm;18038;50.166;18.908;2023-12-28T05:44:18;43.18;34.02;56.31;;
68599;Laerm;18038;50.166;18.908;2023-12-28T05:47:31;45.36;33.91;62.79;;
68599;Laerm;18038;50.166;18.908;2023-12-28T05:50:40;51.44;34.05;67.58;;
68599;Laerm;18038;50.166;18.908;2023-12-28T05:53:49;43.72;33.66;57.76;;
68599;Laerm;18038;50.166;18.908;2023-12-28T05:56:58;43.37;34.02;60.50;;
68599;Laerm;18038;50.166;18.908;2023-12-28T06:00:18;44.72;33.75;59.26;;
68599;Laerm;18038;50.166;18.908;2023-12-28T06:03:26;42.33;33.39;59.84;;
68599;Laerm;18038;50.166;18.908;2023-12-28T06:06:34;41.75;33.33;60.91;;
68599;Laerm;18038;50.166;18.908;2023-12-28T06:09:45;47.28;33.66;63.20;;
68599;Laerm;18038;50.166;18.908;2023-12-28T06:12:52;46.12;33.83;63.25;;
68599;Laerm;18038;50.166;18.908;2023-12-28T06:16:05;54.13;35.01;72.62;;
68599;Laerm;18038;50.166;18.908;2023-12-28T06:19:12;50.65;34.53;65.89;;
68599;Laerm;18038;50.166;18.908;2023-12-28T06:22:25;51.65;34.61;72.35;;
68599;Laerm;18038;50.166;18.908;2023-12-28T06:25:35;51.60;34.71;70.38;;
68599;Laerm;18038;50.166;18.908;2023-12-28T06:28:45;51.30;34.59;67.02;;
68599;Laerm;18038;50.166;18.908;2023-12-28T06:31:52;48.39;34.28;65.30;;
68599;Laerm;18038;50.166;18.908;2023-12-28T06:35:00;55.28;35.05;73.73;;
68599;Laerm;18038;50.166;18.908;2023-12-28T06:38:09;48.50;34.75;67.90;;
68599;Laerm;18038;50.166;18.908;2023-12-28T06:41:22;49.95;34.95;67.08;;
68599;Laerm;18038;50.166;18.908;2023-12-28T06:44:30;51.60;35.63;69.82;;
68599;Laerm;18038;50.166;18.908;2023-12-28T06:47:50;50.09;35.49;66.50;;
68599;Laerm;18038;50.166;18.908;2023-12-28T06:50:57;54.49;36.32;70.72;;
68599;Laerm;18038;50.166;18.908;2023-12-28T06:54:24;47.80;35.89;64.63;;
68599;Laerm;18038;50.166;18.908;2023-12-28T06:57:34;50.55;35.26;68.73;;
68599;Laerm;18038;50.166;18.908;2023-12-28T07:00:49;49.31;35.86;65.34;;
68599;Laerm;18038;50.166;18.908;2023-12-28T07:03:56;55.20;34.87;70.86;;
68599;Laerm;18038;50.166;18.908;2023-12-28T07:07:04;53.53;34.72;68.40;;
68599;Laerm;18038;50.166;18.908;2023-12-28T07:10:12;49.24;35.32;65.77;;
68599;Laerm;18038;50.166;18.908;2023-12-28T07:13:23;50.88;34.11;70.69;;
68599;Laerm;18038;50.166;18.908;2023-12-28T07:16:35;49.33;34.87;66.31;;
68599;Laerm;18038;50.166;18.908;2023-12-28T07:19:46;48.48;34.58;64.11;;
68599;Laerm;18038;50.166;18.908;2023-12-28T07:22:53;49.85;35.01;64.76;;
68599;Laerm;18038;50.166;18.908;2023-12-28T07:26:01;57.32;34.70;76.65;;
68599;Laerm;18038;50.166;18.908;2023-12-28T07:29:11;51.54;34.80;68.08;;
68599;Laerm;18038;50.166;18.908;2023-12-28T07:32:19;50.06;34.75;68.01;;
68599;Laerm;18038;50.166;18.908;2023-12-28T07:35:30;53.41;34.86;68.89;;
68599;Laerm;18038;50.166;18.908;2023-12-28T07:38:38;50.25;35.43;68.33;;
68599;Laerm;18038;50.166;18.908;2023-12-28T07:41:46;45.59;35.44;61.32;;
68599;Laerm;18038;50.166;18.908;2023-12-28T07:44:57;44.27;34.66;58.80;;
68599;Laerm;18038;50.166;18.908;2023-12-28T07:48:06;49.69;36.51;69.13;;
68599;Laerm;18038;50.166;18.908;2023-12-28T07:51:15;44.51;36.59;60.48;;
68599;Laerm;18038;50.166;18.908;2023-12-28T07:54:22;43.63;37.52;54.20;;
68599;Laerm;18038;50.166;18.908;2023-12-28T07:57:30;44.27;34.94;59.19;;
68599;Laerm;18038;50.166;18.908;2023-12-28T08:00:41;42.06;34.85;53.80;;
68599;Laerm;18038;50.166;18.908;2023-12-28T08:03:49;45.80;34.60;60.20;;
68599;Laerm;18038;50.166;18.908;2023-12-28T08:06:56;45.20;34.92;62.76;;
68599;Laerm;18038;50.166;18.908;2023-12-28T08:10:06;45.53;34.75;62.45;;
68599;Laerm;18038;50.166;18.908;2023-12-28T08:13:13;42.82;34.06;56.84;;
68599;Laerm;18038;50.166;18.908;2023-12-28T08:16:28;45.34;35.00;60.83;;
68599;Laerm;18038;50.166;18.908;2023-12-28T08:19:35;45.10;34.73;60.44;;
68599;Laerm;18038;50.166;18.908;2023-12-28T08:22:43;41.94;34.45;54.09;;
68599;Laerm;18038;50.166;18.908;2023-12-28T08:25:57;47.94;35.12;65.27;;
68599;Laerm;18038;50.166;18.908;2023-12-28T08:29:06;43.19;34.76;59.84;;
68599;Laerm;18038;50.166;18.908;2023-12-28T08:32:16;40.89;34.64;52.81;;
68599;Laerm;18038;50.166;18.908;2023-12-28T08:35:24;40.50;34.22;55.78;;
68599;Laerm;18038;50.166;18.908;2023-12-28T08:38:31;42.13;34.52;55.00;;
68599;Laerm;18038;50.166;18.908;2023-12-28T08:41:39;43.40;34.60;58.26;;
68599;Laerm;18038;50.166;18.908;2023-12-28T08:44:46;38.57;33.61;48.89;;
68599;Laerm;18038;50.166;18.908;2023-12-28T08:47:57;39.71;33.79;53.22;;
68599;Laerm;18038;50.166;18.908;2023-12-28T08:51:05;39.30;33.37;49.87;;
68599;Laerm;18038;50.166;18.908;2023-12-28T08:54:13;38.01;33.12;53.09;;
68599;Laerm;18038;50.166;18.908;2023-12-28T08:57:21;41.79;33.08;63.70;;
68599;Laerm;18038;50.166;18.908;2023-12-28T09:00:45;37.94;33.24;50.39;;
68599;Laerm;18038;50.166;18.908;2023-12-28T09:03:58;41.85;33.60;68.78;;
68599;Laerm;18038;50.166;18.908;2023-12-28T09:07:06;41.66;33.72;52.82;;
68599;Laerm;18038;50.166;18.908;2023-12-28T09:10:14;43.25;35.03;57.53;;
68599;Laerm;18038;50.166;18.908;2023-12-28T09:13:22;41.97;34.28;52.30;;
68599;Laerm;18038;50.166;18.908;2023-12-28T09:16:29;53.99;34.72;85.19;;
68599;Laerm;18038;50.166;18.908;2023-12-28T09:19:41;54.14;43.12;68.75;;
68599;Laerm;18038;50.166;18.908;2023-12-28T09:22:48;54.74;42.01;70.59;;
68599;Laerm;18038;50.166;18.908;2023-12-28T09:26:03;53.79;41.80;67.85;;
68599;Laerm;18038;50.166;18.908;2023-12-28T09:29:11;54.94;42.73;72.04;;
68599;Laerm;18038;50.166;18.908;2023-12-28T09:32:19;54.59;42.25;68.73;;
68599;Laerm;18038;50.166;18.908;2023-12-28T09:35:29;54.20;41.18;69.55;;
68599;Laerm;18038;50.166;18.908;2023-12-28T09:38:37;54.39;42.39;69.98;;
68599;Laerm;18038;50.166;18.908;2023-12-28T09:41:55;53.50;42.11;71.38;;
68599;Laerm;18038;50.166;18.908;2023-12-28T09:45:11;52.64;42.67;63.43;;
68599;Laerm;18038;50.166;18.908;2023-12-28T09:48:21;51.95;43.85;61.89;;
68599;Laerm;18038;50.166;18.908;2023-12-28T09:51:33;60.23;42.58;80.50;;
68599;Laerm;18038;50.166;18.908;2023-12-28T09:54:40;58.25;43.07;75.72;;
68599;Laerm;18038;50.166;18.908;2023-12-28T09:57:49;54.40;42.75;67.63;;
68599;Laerm;18038;50.166;18.908;2023-12-28T10:00:59;59.50;45.08;78.08;;
68599;Laerm;18038;50.166;18.908;2023-12-28T10:04:08;56.25;42.99;74.99;;
68599;Laerm;18038;50.166;18.908;2023-12-28T10:07:24;56.80;44.07;73.30;;
68599;Laerm;18038;50.166;18.908;2023-12-28T10:10:39;55.77;43.28;72.01;;
68599;Laerm;18038;50.166;18.908;2023-12-28T10:13:47;55.46;43.37;69.68;;
68599;Laerm;18038;50.166;18.908;2023-12-28T10:16:56;53.58;42.82;73.78;;
68599;Laerm;18038;50.166;18.908;2023-12-28T10:20:10;58.70;44.40;78.10;;
68599;Laerm;18038;50.166;18.908;2023-12-28T10:23:38;54.52;42.95;67.16;;
68599;Laerm;18038;50.166;18.908;2023-12-28T10:26:55;59.14;43.43;74.97;;
68599;Laerm;18038;50.166;18.908;2023-12-28T10:30:05;57.96;42.32;73.49;;
68599;Laerm;18038;50.166;18.908;2023-12-28T10:33:14;58.40;42.85;75.51;;
68599;Laerm;18038;50.166;18.908;2023-12-28T10:36:32;56.54;42.39;71.28;;
68599;Laerm;18038;50.166;18.908;2023-12-28T10:39:47;60.44;42.65;77.87;;
68599;Laerm;18038;50.166;18.908;2023-12-28T10:43:06;61.57;43.05;85.91;;
68599;Laerm;18038;50.166;18.908;2023-12-28T10:46:26;62.42;43.51;79.56;;
68599;Laerm;18038;50.166;18.908;2023-12-28T10:49:41;54.04;42.79;68.16;;
68599;Laerm;18038;50.166;18.908;2023-12-28T10:53:15;65.88;43.44;83.66;;
68599;Laerm;18038;50.166;18.908;2023-12-28T10:56:46;65.22;43.34;84.40;;
68599;Laerm;18038;50.166;18.908;2023-12-28T11:00:07;68.92;44.23;89.01;;
68599;Laerm;18038;50.166;18.908;2023-12-28T11:03:28;61.84;44.02;79.20;;
68599;Laerm;18038;50.166;18.908;2023-12-28T11:06:38;66.99;44.28;83.74;;
68599;Laerm;18038;50.166;18.908;2023-12-28T11:09:49;58.43;42.67;74.83;;
68599;Laerm;18038;50.166;18.908;2023-12-28T11:13:03;65.70;43.43;82.46;;
68599;Laerm;18038;50.166;18.908;2023-12-28T11:16:14;58.14;44.87;75.50;;
68599;Laerm;18038;50.166;18.908;2023-12-28T11:19:22;55.16;41.36;72.95;;
68599;Laerm;18038;50.166;18.908;2023-12-28T11:22:32;63.13;43.74;81.51;;
68599;Laerm;18038;50.166;18.908;2023-12-28T11:25:40;58.84;43.02;74.74;;
68599;Laerm;18038;50.166;18.908;2023-12-28T11:29:00;63.17;43.50;81.70;;
68599;Laerm;18038;50.166;18.908;2023-12-28T11:32:08;55.30;42.75;74.15;;
68599;Laerm;18038;50.166;18.908;2023-12-28T11:35:17;57.76;43.49;74.51;;
68599;Laerm;18038;50.166;18.908;2023-12-28T11:38:25;58.99;42.38;75.77;;
68599;Laerm;18038;50.166;18.908;2023-12-28T11:41:36;57.72;42.30;73.08;;
68599;Laerm;18038;50.166;18.908;2023-12-28T11:44:47;59.47;42.07;74.39;;
68599;Laerm;18038;50.166;18.908;2023-12-28T11:48:00;59.97;41.89;75.30;;
68599;Laerm;18038;50.166;18.908;2023-12-28T11:51:08;62.59;43.80;78.40;;
68599;Laerm;18038;50.166;18.908;2023-12-28T11:54:16;61.23;43.65;76.12;;
68599;Laerm;18038;50.166;18.908;2023-12-28T11:57:24;64.35;42.41;84.52;;
68599;Laerm;18038;50.166;18.908;2023-12-28T12:00:34;59.71;42.05;78.55;;
68599;Laerm;18038;50.166;18.908;2023-12-28T12:03:42;59.37;41.75;75.55;;
68599;Laerm;18038;50.166;18.908;2023-12-28T12:06:50;57.51;42.28;74.93;;
68599;Laerm;18038;50.166;18.908;2023-12-28T12:10:00;57.08;44.85;72.67;;
68599;Laerm;18038;50.166;18.908;2023-12-28T12:13:09;62.01;43.34;80.89;;
68599;Laerm;18038;50.166;18.908;2023-12-28T12:16:19;58.11;42.16;75.77;;
68599;Laerm;18038;50.166;18.908;2023-12-28T12:19:28;53.47;42.40;70.20;;
68599;Laerm;18038;50.166;18.908;2023-12-28T12:22:43;52.29;42.82;63.84;;
68599;Laerm;18038;50.166;18.908;2023-12-28T12:25:54;55.61;41.58;74.24;;
68599;Laerm;18038;50.166;18.908;2023-12-28T12:29:02;53.38;41.95;74.71;;
68599;Laerm;18038;50.166;18.908;2023-12-28T12:32:14;55.99;43.67;75.32;;
68599;Laerm;18038;50.166;18.908;2023-12-28T12:35:24;52.36;41.01;67.10;;
68599;Laerm;18038;50.166;18.908;2023-12-28T12:38:40;54.41;42.11;71.65;;
68599;Laerm;18038;50.166;18.908;2023-12-28T12:41:47;52.05;41.66;65.25;;
68599;Laerm;18038;50.166;18.908;2023-12-28T12:44:56;52.63;41.65;67.89;;
68599;Laerm;18038;50.166;18.908;2023-12-28T12:48:08;55.54;41.72;73.92;;
68599;Laerm;18038;50.166;18.908;2023-12-28T12:51:19;57.15;41.40;74.39;;
68599;Laerm;18038;50.166;18.908;2023-12-28T12:54:26;52.55;42.12;65.86;;
68599;Laerm;18038;50.166;18.908;2023-12-28T12:57:37;55.04;43.55;68.44;;
68599;Laerm;18038;50.166;18.908;2023-12-28T13:00:46;54.28;42.85;69.85;;
68599;Laerm;18038;50.166;18.908;2023-12-28T13:03:57;56.16;43.20;70.99;;
68599;Laerm;18038;50.166;18.908;2023-12-28T13:07:12;52.29;42.26;65.40;;
68599;Laerm;18038;50.166;18.908;2023-12-28T13:10:20;56.27;43.24;71.24;;
68599;Laerm;18038;50.166;18.908;2023-12-28T13:13:28;54.38;43.36;67.03;;
68599;Laerm;18038;50.166;18.908;2023-12-28T13:16:36;52.60;43.93;63.10;;
68599;Laerm;18038;50.166;18.908;2023-12-28T13:19:46;55.10;42.55;68.60;;
68599;Laerm;18038;50.166;18.908;2023-12-28T13:22:54;56.47;43.23;71.25;;
68599;Laerm;18038;50.166;18.908;2023-12-28T13:26:02;51.61;41.54;67.37;;
68599;Laerm;18038;50.166;18.908;2023-12-28T13:29:10;57.84;43.91;74.64;;
68599;Laerm;18038;50.166;18.908;2023-12-28T13:32:18;52.32;42.43;66.67;;
68599;Laerm;18038;50.166;18.908;2023-12-28T13:35:28;54.89;43.36;69.06;;
68599;Laerm;18038;50.166;18.908;2023-12-28T13:38:43;52.59;42.82;66.87;;
68599;Laerm;18038;50.166;18.908;2023-12-28T13:41:51;55.00;42.26;68.57;;
68599;Laerm;18038;50.166;18.908;2023-12-28T13:44:58;55.08;40.60;73.72;;
68599;Laerm;18038;50.166;18.908;2023-12-28T13:48:07;51.60;41.13;62.86;;
68599;Laerm;18038;50.166;18.908;2023-12-28T13:51:18;53.71;42.56;71.47;;
68599;Laerm;18038;50.166;18.908;2023-12-28T13:54:26;52.35;41.92;68.07;;
68599;Laerm;18038;50.166;18.908;2023-12-28T13:57:35;54.12;40.82;69.41;;
68599;Laerm;18038;50.166;18.908;2023-12-28T14:00:43;55.63;43.24;72.73;;
68599;Laerm;18038;50.166;18.908;2023-12-28T14:03:51;58.67;43.97;75.60;;
68599;Laerm;18038;50.166;18.908;2023-12-28T14:07:02;55.81;42.27;72.09;;
68599;Laerm;18038;50.166;18.908;2023-12-28T14:10:10;58.70;45.14;73.61;;
68599;Laerm;18038;50.166;18.908;2023-12-28T14:13:18;56.23;43.42;72.52;;
68599;Laerm;18038;50.166;18.908;2023-12-28T14:16:27;56.46;43.42;70.63;;
68599;Laerm;18038;50.166;18.908;2023-12-28T14:19:36;51.14;42.04;61.91;;
68599;Laerm;18038;50.166;18.908;2023-12-28T14:22:48;53.59;41.57;68.16;;
68599;Laerm;18038;50.166;18.908;2023-12-28T14:25:57;52.64;41.90;70.14;;
68599;Laerm;18038;50.166;18.908;2023-12-28T14:29:06;50.70;41.92;64.24;;
68599;Laerm;18038;50.166;18.908;2023-12-28T14:32:15;51.81;41.57;63.61;;
68599;Laerm;18038;50.166;18.908;2023-12-28T14:35:23;51.73;41.33;64.04;;
68599;Laerm;18038;50.166;18.908;2023-12-28T14:38:36;52.81;43.26;71.01;;
68599;Laerm;18038;50.166;18.908;2023-12-28T14:41:43;53.27;42.76;71.34;;
68599;Laerm;18038;50.166;18.908;2023-12-28T14:44:51;55.04;42.16;68.23;;
68599;Laerm;18038;50.166;18.908;2023-12-28T14:47:58;49.63;41.05;60.11;;
68599;Laerm;18038;50.166;18.908;2023-12-28T14:51:07;50.88;40.68;67.82;;
68599;Laerm;18038;50.166;18.908;2023-12-28T14:54:17;50.12;40.87;59.25;;
68599;Laerm;18038;50.166;18.908;2023-12-28T14:57:25;50.97;41.14;60.88;;
68599;Laerm;18038;50.166;18.908;2023-12-28T15:00:33;50.72;41.01;63.59;;
68599;Laerm;18038;50.166;18.908;2023-12-28T15:03:43;52.32;41.36;67.33;;
68599;Laerm;18038;50.166;18.908;2023-12-28T15:06:50;52.53;42.69;65.68;;
68599;Laerm;18038;50.166;18.908;2023-12-28T15:10:03;55.28;42.80;73.42;;
68599;Laerm;18038;50.166;18.908;2023-12-28T15:13:13;53.86;41.66;67.17;;
68599;Laerm;18038;50.166;18.908;2023-12-28T15:16:23;52.56;41.15;67.86;;
68599;Laerm;18038;50.166;18.908;2023-12-28T15:19:32;54.33;43.21;73.90;;
68599;Laerm;18038;50.166;18.908;2023-12-28T15:22:41;54.08;42.89;73.53;;
68599;Laerm;18038;50.166;18.908;2023-12-28T15:25:51;51.17;42.22;62.41;;
68599;Laerm;18038;50.166;18.908;2023-12-28T15:28:59;55.91;43.64;71.39;;
68599;Laerm;18038;50.166;18.908;2023-12-28T15:32:07;55.74;43.15;71.08;;
68599;Laerm;18038;50.166;18.908;2023-12-28T15:35:15;58.51;41.56;80.51;;
68599;Laerm;18038;50.166;18.908;2023-12-28T15:38:23;56.06;42.31;73.07;;
68599;Laerm;18038;50.166;18.908;2023-12-28T15:41:36;53.73;40.80;71.16;;
68599;Laerm;18038;50.166;18.908;2023-12-28T15:44:54;54.62;41.46;70.28;;
68599;Laerm;18038;50.166;18.908;2023-12-28T15:48:15;59.93;40.34;75.48;;
68599;Laerm;18038;50.166;18.908;2023-12-28T15:51:22;55.46;41.95;71.51;;
68599;Laerm;18038;50.166;18.908;2023-12-28T15:54:35;53.10;42.12;70.09;;
68599;Laerm;18038;50.166;18.908;2023-12-28T15:57:45;53.37;41.86;71.76;;
68599;Laerm;18038;50.166;18.908;2023-12-28T16:00:55;54.85;42.30;69.03;;
68599;Laerm;18038;50.166;18.908;2023-12-28T16:04:12;57.09;40.95;76.71;;
68599;Laerm;18038;50.166;18.908;2023-12-28T16:07:24;55.77;43.77;71.62;;
68599;Laerm;18038;50.166;18.908;2023-12-28T16:10:31;54.15;41.67;75.98;;
68599;Laerm;18038;50.166;18.908;2023-12-28T16:13:43;55.01;42.37;71.45;;
68599;Laerm;18038;50.166;18.908;2023-12-28T16:16:51;55.59;41.64;73.22;;
68599;Laerm;18038;50.166;18.908;2023-12-28T16:20:07;55.71;43.14;73.36;;
68599;Laerm;18038;50.166;18.908;2023-12-28T16:23:23;52.88;41.37;66.27;;
68599;Laerm;18038;50.166;18.908;2023-12-28T16:26:37;55.36;40.87;69.17;;
68599;Laerm;18038;50.166;18.908;2023-12-28T16:29:47;56.02;40.35;73.69;;
68599;Laerm;18038;50.166;18.908;2023-12-28T16:32:58;53.33;40.48;66.68;;
68599;Laerm;18038;50.166;18.908;2023-12-28T16:36:22;52.14;40.99;67.68;;
68599;Laerm;18038;50.166;18.908;2023-12-28T16:39:39;56.69;39.97;78.14;;
68599;Laerm;18038;50.166;18.908;2023-12-28T16:42:46;55.52;43.72;73.86;;
68599;Laerm;18038;50.166;18.908;2023-12-28T16:46:01;53.62;40.00;73.16;;
68599;Laerm;18038;50.166;18.908;2023-12-28T16:49:08;50.46;40.18;67.87;;
68599;Laerm;18038;50.166;18.908;2023-12-28T16:52:17;50.86;40.43;63.60;;
68599;Laerm;18038;50.166;18.908;2023-12-28T16:55:24;50.16;40.84;63.83;;
68599;Laerm;18038;50.166;18.908;2023-12-28T16:58:34;50.49;40.04;65.75;;
68599;Laerm;18038;50.166;18.908;2023-12-28T17:01:44;52.72;39.82;68.11;;
68599;Laerm;18038;50.166;18.908;2023-12-28T17:04:55;49.20;40.17;71.17;;
68599;Laerm;18038;50.166;18.908;2023-12-28T17:08:04;51.27;40.14;65.66;;
68599;Laerm;18038;50.166;18.908;2023-12-28T17:11:16;54.12;41.17;70.41;;
68599;Laerm;18038;50.166;18.908;2023-12-28T17:14:25;53.77;39.73;68.17;;
68599;Laerm;18038;50.166;18.908;2023-12-28T17:17:37;54.53;39.91;75.30;;
68599;Laerm;18038;50.166;18.908;2023-12-28T17:20:46;49.16;40.68;66.00;;
68599;Laerm;18038;50.166;18.908;2023-12-28T17:23:55;49.46;39.40;63.62;;
68599;Laerm;18038;50.166;18.908;2023-12-28T17:27:14;49.65;40.19;60.77;;
68599;Laerm;18038;50.166;18.908;2023-12-28T17:30:30;54.41;39.42;75.05;;